Time;durP1;ratioP1;P1;durP2;ratioP2;P2;SDS_P1;SDS_P2;PMS_P1;PMS_P2;Temp;Humidity;BMP_temperature;BMP_pressure;BME280_temperature;BME280_humidity;BME280_pressure;Samples;Min_cycle;Max_cycle;Signal;HPM_P1;HPM_P2
2024/03/12 00:00:17;;;;;;;47.20;26.23;;;;;;;;;;4971299;28;20877;-68
2024/03/12 00:02:46;;;;;;;48.70;26.20;;;;;;;;;;4971717;28;20200;-69
2024/03/12 00:05:15;;;;;;;50.20;26.80;;;;;;;;;;4959861;28;20180;-68
2024/03/12 00:07:41;;;;;;;57.77;25.80;;;;;;;;;;4972993;28;20200;-69
2024/03/12 00:10:09;;;;;;;56.33;28.00;;;;;;;;;;4973853;28;20200;-69
2024/03/12 00:12:35;;;;;;;49.63;25.83;;;;;;;;;;4971629;28;20172;-68
2024/03/12 00:15:00;;;;;;;54.53;25.73;;;;;;;;;;4973124;28;20231;-69
2024/03/12 00:17:25;;;;;;;56.57;26.83;;;;;;;;;;4974389;28;20196;-69
2024/03/12 00:19:52;;;;;;;48.87;25.40;;;;;;;;;;4986251;28;20173;-69
2024/03/12 00:22:17;;;;;;;57.40;27.20;;;;;;;;;;4956772;28;20180;-68
2024/03/12 00:24:44;;;;;;;60.87;28.17;;;;;;;;;;4971739;28;20267;-68
2024/03/12 00:27:09;;;;;;;56.07;28.97;;;;;;;;;;4956251;28;20703;-69
2024/03/12 00:29:34;;;;;;;59.30;27.17;;;;;;;;;;4973216;28;20208;-69
2024/03/12 00:32:00;;;;;;;62.50;30.30;;;;;;;;;;4965614;28;20215;-69
2024/03/12 00:34:25;;;;;;;64.50;28.77;;;;;;;;;;4965669;28;20185;-68
2024/03/12 00:36:51;;;;;;;63.63;28.73;;;;;;;;;;4967779;28;20263;-69
2024/03/12 00:39:16;;;;;;;61.47;28.73;;;;;;;;;;4955000;28;20697;-69
2024/03/12 00:41:41;;;;;;;54.10;27.90;;;;;;;;;;4970604;28;20188;-68
2024/03/12 00:44:06;;;;;;;62.60;28.50;;;;;;;;;;4971589;28;20656;-69
2024/03/12 00:46:31;;;;;;;54.93;27.40;;;;;;;;;;4950278;28;20207;-68
2024/03/12 00:48:57;;;;;;;65.90;27.37;;;;;;;;;;4970689;28;20255;-69
2024/03/12 00:51:22;;;;;;;60.43;29.50;;;;;;;;;;4966648;28;20181;-69
2024/03/12 00:53:47;;;;;;;70.43;30.37;;;;;;;;;;4946335;28;20211;-69
2024/03/12 00:56:15;;;;;;;65.13;28.70;;;;;;;;;;4954786;28;20200;-69
2024/03/12 00:58:40;;;;;;;55.20;27.27;;;;;;;;;;4973062;28;20668;-67
2024/03/12 01:01:06;;;;;;;64.17;28.00;;;;;;;;;;4973013;28;20211;-69
2024/03/12 01:03:32;;;;;;;62.60;27.43;;;;;;;;;;4971704;28;20195;-69
2024/03/12 01:05:57;;;;;;;60.83;28.17;;;;;;;;;;4968732;28;20287;-69
2024/03/12 01:08:23;;;;;;;61.50;29.37;;;;;;;;;;4970493;28;20204;-67
2024/03/12 01:10:49;;;;;;;59.43;27.33;;;;;;;;;;4960513;28;20247;-68
2024/03/12 01:13:15;;;;;;;58.87;27.40;;;;;;;;;;4966796;28;20849;-69
2024/03/12 01:15:40;;;;;;;57.50;27.03;;;;;;;;;;4967809;28;20661;-69
2024/03/12 01:18:07;;;;;;;64.73;28.83;;;;;;;;;;4972507;28;20183;-69
2024/03/12 01:20:35;;;;;;;62.23;28.20;;;;;;;;;;4971434;28;20176;-69
2024/03/12 01:23:01;;;;;;;62.20;27.47;;;;;;;;;;4970924;28;20191;-69
2024/03/12 01:25:29;;;;;;;62.93;26.80;;;;;;;;;;4969487;28;20185;-69
2024/03/12 01:27:55;;;;;;;70.13;26.57;;;;;;;;;;4973575;28;20204;-69
2024/03/12 01:30:26;;;;;;;63.13;25.83;;;;;;;;;;4977001;28;20177;-69
2024/03/12 01:32:52;;;;;;;48.43;25.67;;;;;;;;;;4960483;28;20173;-69
2024/03/12 01:35:20;;;;;;;67.47;27.00;;;;;;;;;;4964040;28;20242;-69
2024/03/12 01:37:46;;;;;;;59.03;24.90;;;;;;;;;;4969074;28;20212;-69
2024/03/12 01:40:29;;;;;;;58.23;24.90;;;;;;;;;;4969749;28;20322;-68
2024/03/12 01:43:01;;;;;;;68.30;26.60;;;;;;;;;;4971591;28;20315;-68
2024/03/12 01:45:27;;;;;;;54.07;25.57;;;;;;;;;;4971075;28;20187;-69
2024/03/12 01:47:54;;;;;;;54.87;25.50;;;;;;;;;;4972379;28;20180;-68
2024/03/12 01:50:20;;;;;;;52.17;24.97;;;;;;;;;;4960843;28;20657;-69
2024/03/12 01:52:46;;;;;;;55.93;25.03;;;;;;;;;;4970652;28;20207;-68
2024/03/12 01:55:12;;;;;;;56.87;25.77;;;;;;;;;;4971222;28;20234;-68
2024/03/12 01:57:41;;;;;;;57.70;26.17;;;;;;;;;;4967071;28;21126;-69
2024/03/12 02:00:10;;;;;;;47.70;24.43;;;;;;;;;;4968945;28;20223;-68
2024/03/12 02:02:35;;;;;;;58.17;26.33;;;;;;;;;;4953010;28;20243;-68
2024/03/12 02:05:01;;;;;;;55.63;25.83;;;;;;;;;;4970342;28;20192;-69
2024/03/12 02:07:26;;;;;;;59.60;26.60;;;;;;;;;;4940956;28;20242;-69
2024/03/12 02:09:51;;;;;;;59.50;24.93;;;;;;;;;;4963255;28;20208;-69
2024/03/12 02:12:16;;;;;;;54.27;25.33;;;;;;;;;;4952452;28;20184;-69
2024/03/12 02:14:41;;;;;;;61.13;26.47;;;;;;;;;;4971122;28;20172;-69
2024/03/12 02:17:06;;;;;;;50.77;24.40;;;;;;;;;;4967326;28;20262;-68
2024/03/12 02:19:33;;;;;;;63.43;27.17;;;;;;;;;;4966027;28;20615;-69
2024/03/12 02:21:59;;;;;;;54.33;26.33;;;;;;;;;;4965803;28;20734;-69
2024/03/12 02:24:24;;;;;;;60.20;25.43;;;;;;;;;;4968453;28;20176;-69
2024/03/12 02:26:49;;;;;;;61.17;26.93;;;;;;;;;;4955576;28;20259;-69
2024/03/12 02:29:15;;;;;;;55.90;24.73;;;;;;;;;;4967964;28;20232;-68
2024/03/12 02:31:40;;;;;;;62.67;27.07;;;;;;;;;;4967458;28;20660;-69
2024/03/12 02:34:05;;;;;;;47.93;23.83;;;;;;;;;;4951169;28;20173;-69
2024/03/12 02:36:31;;;;;;;63.27;25.20;;;;;;;;;;5029853;23;20276;-73
2024/03/12 02:38:56;;;;;;;59.63;24.90;;;;;;;;;;5006941;28;20233;-73
2024/03/12 02:41:21;;;;;;;49.93;23.70;;;;;;;;;;5004536;28;20601;-73
2024/03/12 02:43:47;;;;;;;59.07;25.70;;;;;;;;;;4986623;28;20187;-73
2024/03/12 02:46:14;;;;;;;71.00;26.43;;;;;;;;;;5000385;28;20233;-73
2024/03/12 02:48:41;;;;;;;59.63;23.80;;;;;;;;;;4969604;28;20208;-72
2024/03/12 02:51:08;;;;;;;54.37;24.10;;;;;;;;;;4988198;28;20179;-73
2024/03/12 02:53:34;;;;;;;60.50;23.77;;;;;;;;;;4982146;28;20180;-73
2024/03/12 02:55:59;;;;;;;58.87;24.73;;;;;;;;;;4986903;28;20198;-73
2024/03/12 02:58:25;;;;;;;58.77;23.27;;;;;;;;;;4989756;28;20244;-72
2024/03/12 03:00:53;;;;;;;59.00;24.50;;;;;;;;;;4984417;28;20195;-73
2024/03/12 03:03:18;;;;;;;57.27;23.00;;;;;;;;;;4974315;28;20674;-73
2024/03/12 03:05:44;;;;;;;47.77;23.27;;;;;;;;;;4993671;28;20196;-73
2024/03/12 03:08:10;;;;;;;53.77;20.73;;;;;;;;;;4992319;28;20179;-73
2024/03/12 03:10:35;;;;;;;41.60;20.23;;;;;;;;;;4991791;28;20183;-73
2024/03/12 03:13:01;;;;;;;43.27;20.67;;;;;;;;;;4988896;28;20262;-74
2024/03/12 03:15:26;;;;;;;48.77;19.87;;;;;;;;;;4992485;28;20714;-74
2024/03/12 03:17:52;;;;;;;43.43;19.43;;;;;;;;;;4993252;28;20223;-74
2024/03/12 03:20:18;;;;;;;46.63;20.83;;;;;;;;;;4966204;28;20275;-75
2024/03/12 03:22:44;;;;;;;43.23;19.63;;;;;;;;;;4990160;28;20271;-75
2024/03/12 03:25:13;;;;;;;40.50;19.47;;;;;;;;;;4970699;28;20287;-75
2024/03/12 03:27:38;;;;;;;41.93;20.83;;;;;;;;;;4987320;28;20590;-74
2024/03/12 03:30:06;;;;;;;46.77;20.37;;;;;;;;;;4985117;28;20203;-74
2024/03/12 03:32:35;;;;;;;44.63;20.37;;;;;;;;;;4992016;28;20254;-74
2024/03/12 03:35:00;;;;;;;48.57;19.93;;;;;;;;;;4989811;28;20180;-74
2024/03/12 03:37:30;;;;;;;49.17;20.67;;;;;;;;;;4989914;28;20211;-74
2024/03/12 03:39:55;;;;;;;46.70;20.57;;;;;;;;;;4989385;28;20172;-74
2024/03/12 03:42:21;;;;;;;42.40;21.17;;;;;;;;;;4987083;28;20183;-74
2024/03/12 03:44:46;;;;;;;54.90;22.13;;;;;;;;;;4979450;28;20543;-74
2024/03/12 03:47:11;;;;;;;44.20;20.87;;;;;;;;;;4982089;28;20207;-74
2024/03/12 03:49:37;;;;;;;42.10;20.93;;;;;;;;;;4990266;28;20294;-74
2024/03/12 03:52:02;;;;;;;51.37;21.63;;;;;;;;;;4976084;28;20178;-74
2024/03/12 03:54:27;;;;;;;43.77;21.23;;;;;;;;;;4993815;28;20573;-74
2024/03/12 03:56:53;;;;;;;65.97;24.50;;;;;;;;;;4992467;28;20211;-73
2024/03/12 03:59:19;;;;;;;49.60;22.97;;;;;;;;;;4986008;28;20183;-74
2024/03/12 04:01:44;;;;;;;51.87;21.20;;;;;;;;;;4984901;28;20183;-73
2024/03/12 04:04:11;;;;;;;55.23;20.97;;;;;;;;;;4977429;28;20199;-74
2024/03/12 04:06:39;;;;;;;51.33;21.50;;;;;;;;;;4991733;28;20211;-73
2024/03/12 04:09:05;;;;;;;52.60;21.60;;;;;;;;;;4990046;28;20674;-73
2024/03/12 04:11:30;;;;;;;55.33;21.90;;;;;;;;;;4988339;28;20187;-73
2024/03/12 04:13:58;;;;;;;51.10;21.83;;;;;;;;;;4992532;28;20171;-73
2024/03/12 04:16:23;;;;;;;46.80;21.53;;;;;;;;;;4993270;28;20227;-73
2024/03/12 04:18:48;;;;;;;54.90;20.73;;;;;;;;;;4978922;28;20281;-73
2024/03/12 04:21:13;;;;;;;52.63;22.27;;;;;;;;;;4980778;28;20191;-73
2024/03/12 04:23:39;;;;;;;60.17;20.97;;;;;;;;;;4986103;28;20568;-73
2024/03/12 04:26:04;;;;;;;48.90;20.70;;;;;;;;;;4993245;28;20576;-73
2024/03/12 04:28:29;;;;;;;41.67;20.77;;;;;;;;;;4971595;28;20304;-73
2024/03/12 04:30:55;;;;;;;48.30;20.03;;;;;;;;;;4982817;28;20215;-73
2024/03/12 04:33:20;;;;;;;49.97;19.60;;;;;;;;;;4986121;28;20180;-73
2024/03/12 04:35:45;;;;;;;45.60;19.47;;;;;;;;;;4992002;28;20553;-74
2024/03/12 04:38:10;;;;;;;47.97;20.30;;;;;;;;;;4988864;28;20188;-74
2024/03/12 04:40:36;;;;;;;44.83;20.47;;;;;;;;;;4982004;28;20189;-74
2024/03/12 04:43:02;;;;;;;51.53;20.33;;;;;;;;;;4984611;28;20559;-74
2024/03/12 04:45:28;;;;;;;40.50;19.27;;;;;;;;;;4992945;28;20186;-73
2024/03/12 04:47:53;;;;;;;51.50;21.67;;;;;;;;;;4988592;28;20192;-73
2024/03/12 04:50:22;;;;;;;45.87;19.80;;;;;;;;;;4982478;28;20290;-74
2024/03/12 04:52:47;;;;;;;45.27;19.83;;;;;;;;;;4973994;28;20192;-73
2024/03/12 04:55:15;;;;;;;49.63;19.87;;;;;;;;;;4992706;28;20172;-73
2024/03/12 04:57:40;;;;;;;50.70;20.83;;;;;;;;;;4987136;28;20203;-73
2024/03/12 05:00:13;;;;;;;47.27;19.63;;;;;;;;;;4978991;28;20843;-73
2024/03/12 05:02:38;;;;;;;41.90;18.73;;;;;;;;;;4990548;28;20184;-73
2024/03/12 05:05:04;;;;;;;45.30;18.57;;;;;;;;;;4973211;28;20271;-73
2024/03/12 05:07:29;;;;;;;40.40;18.83;;;;;;;;;;4990814;28;20207;-73
2024/03/12 05:09:54;;;;;;;42.97;19.83;;;;;;;;;;4991375;28;20489;-73
2024/03/12 05:12:19;;;;;;;55.23;19.77;;;;;;;;;;4987366;28;20558;-73
2024/03/12 05:14:44;;;;;;;45.87;20.10;;;;;;;;;;4991448;28;20626;-73
2024/03/12 05:17:10;;;;;;;46.03;19.80;;;;;;;;;;4979285;28;20200;-73
2024/03/12 05:19:35;;;;;;;33.90;18.83;;;;;;;;;;4982391;28;20191;-73
2024/03/12 05:22:02;;;;;;;44.67;19.33;;;;;;;;;;4974082;28;20353;-73
2024/03/12 05:24:29;;;;;;;40.63;19.70;;;;;;;;;;4990889;28;20190;-73
2024/03/12 05:26:54;;;;;;;45.77;18.80;;;;;;;;;;4991147;28;20204;-73
2024/03/12 05:29:26;;;;;;;40.37;18.67;;;;;;;;;;4983909;28;20207;-73
2024/03/12 05:31:51;;;;;;;37.67;19.27;;;;;;;;;;4985086;28;20195;-73
2024/03/12 05:34:18;;;;;;;46.53;18.97;;;;;;;;;;4987225;28;20647;-73
2024/03/12 05:36:51;;;;;;;46.13;19.87;;;;;;;;;;4986276;28;20211;-73
2024/03/12 05:50:16;;;;;;;55.37;19.80;;;;;;;;;;4981726;28;20258;-73
2024/03/12 05:52:41;;;;;;;40.93;16.60;;;;;;;;;;4988819;28;20180;-73
2024/03/12 05:55:07;;;;;;;38.23;18.03;;;;;;;;;;4988093;28;20262;-73
2024/03/12 05:57:33;;;;;;;38.90;19.20;;;;;;;;;;4968310;28;20228;-73
2024/03/12 05:59:58;;;;;;;37.40;18.23;;;;;;;;;;4984382;28;20275;-72
2024/03/12 06:02:23;;;;;;;42.17;17.60;;;;;;;;;;4982484;28;20184;-73
2024/03/12 06:04:49;;;;;;;43.27;18.10;;;;;;;;;;4981875;28;20226;-73
2024/03/12 06:07:14;;;;;;;42.33;18.77;;;;;;;;;;4986490;28;20716;-73
2024/03/12 06:09:40;;;;;;;42.13;17.60;;;;;;;;;;4981783;28;20218;-73
2024/03/12 06:12:05;;;;;;;35.37;16.80;;;;;;;;;;4976952;28;20180;-72
2024/03/12 06:14:31;;;;;;;40.63;16.30;;;;;;;;;;4990062;28;20266;-73
2024/03/12 06:16:56;;;;;;;40.00;17.73;;;;;;;;;;4990474;28;20196;-73
2024/03/12 06:19:22;;;;;;;37.77;18.00;;;;;;;;;;4983039;28;20549;-73
2024/03/12 06:21:47;;;;;;;47.47;18.60;;;;;;;;;;4978279;28;20188;-73
2024/03/12 06:24:12;;;;;;;38.43;17.30;;;;;;;;;;4991034;28;20184;-73
2024/03/12 06:26:38;;;;;;;41.93;17.70;;;;;;;;;;4990598;28;20671;-73
2024/03/12 06:29:03;;;;;;;45.00;17.73;;;;;;;;;;4980665;28;20200;-73
2024/03/12 06:31:29;;;;;;;39.67;17.00;;;;;;;;;;4980540;28;20244;-73
2024/03/12 06:33:54;;;;;;;42.43;18.90;;;;;;;;;;4971440;28;20667;-73
2024/03/12 06:36:19;;;;;;;37.07;17.77;;;;;;;;;;4984210;28;20202;-73
2024/03/12 06:38:47;;;;;;;53.90;18.13;;;;;;;;;;4985676;28;20199;-73
2024/03/12 06:41:12;;;;;;;41.83;17.47;;;;;;;;;;4990152;28;20183;-73
2024/03/12 06:43:40;;;;;;;37.13;16.50;;;;;;;;;;4986180;28;20180;-73
2024/03/12 06:46:07;;;;;;;31.00;16.03;;;;;;;;;;4988356;28;20238;-73
2024/03/12 06:48:32;;;;;;;44.00;18.13;;;;;;;;;;4983335;28;20206;-73
2024/03/12 06:50:57;;;;;;;36.97;15.83;;;;;;;;;;4963882;28;20172;-73
2024/03/12 06:53:25;;;;;;;36.60;15.83;;;;;;;;;;4987402;28;20187;-73
2024/03/12 06:55:50;;;;;;;43.07;16.90;;;;;;;;;;4970760;28;20237;-73
2024/03/12 06:58:18;;;;;;;48.13;17.77;;;;;;;;;;4986701;28;20179;-73
2024/03/12 07:00:44;;;;;;;32.27;15.47;;;;;;;;;;4965383;28;20227;-73
2024/03/12 07:03:10;;;;;;;37.60;17.03;;;;;;;;;;4980886;28;20172;-73
2024/03/12 07:05:43;;;;;;;37.77;17.00;;;;;;;;;;4972310;28;20190;-73
2024/03/12 07:08:09;;;;;;;39.70;15.90;;;;;;;;;;4984709;28;20171;-73
2024/03/12 07:10:40;;;;;;;41.07;17.50;;;;;;;;;;4983498;28;20250;-73
2024/03/12 07:13:07;;;;;;;31.97;15.20;;;;;;;;;;4980103;28;20179;-73
2024/03/12 07:15:32;;;;;;;32.87;17.17;;;;;;;;;;4986747;28;20682;-73
2024/03/12 07:17:58;;;;;;;29.23;14.57;;;;;;;;;;4989141;28;20219;-73
2024/03/12 07:20:23;;;;;;;35.13;15.90;;;;;;;;;;4980750;28;20621;-73
2024/03/12 07:22:48;;;;;;;31.20;14.27;;;;;;;;;;4983740;28;20270;-73
2024/03/12 07:25:15;;;;;;;39.03;16.17;;;;;;;;;;4988687;28;20191;-73
2024/03/12 07:27:42;;;;;;;36.40;15.87;;;;;;;;;;4968846;28;20207;-73
2024/03/12 07:30:10;;;;;;;36.60;15.03;;;;;;;;;;4986678;28;20200;-73
2024/03/12 07:32:36;;;;;;;32.13;14.83;;;;;;;;;;4976979;28;20207;-72
2024/03/12 07:35:01;;;;;;;35.53;14.90;;;;;;;;;;4988814;28;20550;-72
2024/03/12 07:37:27;;;;;;;31.10;15.97;;;;;;;;;;4986411;28;20687;-72
2024/03/12 07:39:52;;;;;;;33.10;15.40;;;;;;;;;;4983077;28;20191;-72
2024/03/12 07:42:20;;;;;;;27.53;14.90;;;;;;;;;;4982879;28;20263;-72
2024/03/12 07:44:48;;;;;;;23.60;13.20;;;;;;;;;;4980044;28;20972;-72
2024/03/12 07:47:14;;;;;;;31.27;14.07;;;;;;;;;;4988338;28;20208;-72
2024/03/12 07:49:39;;;;;;;30.67;14.37;;;;;;;;;;4989571;28;20215;-72
2024/03/12 07:52:05;;;;;;;28.30;12.70;;;;;;;;;;4992038;28;20207;-72
2024/03/12 07:54:31;;;;;;;28.13;12.97;;;;;;;;;;4993773;28;20179;-72
2024/03/12 07:56:56;;;;;;;27.50;13.33;;;;;;;;;;4987156;28;20257;-72
2024/03/12 07:59:22;;;;;;;36.40;14.13;;;;;;;;;;4993797;28;20176;-72
2024/03/12 08:01:53;;;;;;;26.33;12.73;;;;;;;;;;4990633;28;20346;-72
2024/03/12 08:04:19;;;;;;;25.83;13.67;;;;;;;;;;4976860;28;20211;-72
2024/03/12 08:06:44;;;;;;;26.23;12.87;;;;;;;;;;4987667;28;20682;-73
2024/03/12 08:09:10;;;;;;;26.57;12.73;;;;;;;;;;4990933;28;20679;-72
2024/03/12 08:11:36;;;;;;;21.97;13.13;;;;;;;;;;4994523;28;20182;-72
2024/03/12 08:14:01;;;;;;;29.00;15.40;;;;;;;;;;4986164;28;20641;-72
2024/03/12 08:16:26;;;;;;;27.53;13.37;;;;;;;;;;4987267;28;20294;-72
2024/03/12 08:18:52;;;;;;;31.57;13.77;;;;;;;;;;4998910;28;20191;-73
2024/03/12 08:21:17;;;;;;;30.27;14.90;;;;;;;;;;4969060;28;20509;-72
2024/03/12 08:23:42;;;;;;;26.57;13.33;;;;;;;;;;4978830;28;20235;-72
2024/03/12 08:26:08;;;;;;;29.57;15.07;;;;;;;;;;4990169;28;20203;-72
2024/03/12 08:28:33;;;;;;;32.33;15.80;;;;;;;;;;4993500;28;20687;-73
2024/03/12 08:30:59;;;;;;;42.77;15.93;;;;;;;;;;4988278;28;20192;-72
2024/03/12 08:33:24;;;;;;;29.97;14.97;;;;;;;;;;4984854;28;20223;-72
2024/03/12 08:35:49;;;;;;;33.23;16.70;;;;;;;;;;4982735;28;20212;-72
2024/03/12 08:38:14;;;;;;;34.70;15.80;;;;;;;;;;5009425;23;20233;-69
2024/03/12 08:40:40;;;;;;;25.70;12.83;;;;;;;;;;4989554;28;20255;-67
2024/03/12 08:43:05;;;;;;;27.87;14.43;;;;;;;;;;4983330;28;20651;-69
2024/03/12 08:45:31;;;;;;;28.47;14.37;;;;;;;;;;4981822;28;20536;-69
2024/03/12 08:47:59;;;;;;;27.30;13.60;;;;;;;;;;4976196;28;20204;-67
2024/03/12 08:50:26;;;;;;;23.30;14.30;;;;;;;;;;4967633;28;20204;-69
2024/03/12 08:52:52;;;;;;;29.47;15.30;;;;;;;;;;4954296;28;20631;-68
2024/03/12 08:55:18;;;;;;;29.50;14.60;;;;;;;;;;4973099;28;20268;-67
2024/03/12 08:57:43;;;;;;;26.13;14.30;;;;;;;;;;4956097;28;20215;-69
2024/03/12 09:00:11;;;;;;;31.17;14.60;;;;;;;;;;4965533;28;20172;-69
2024/03/12 09:02:39;;;;;;;24.77;14.57;;;;;;;;;;4968238;28;20185;-70
2024/03/12 09:05:07;;;;;;;21.90;12.83;;;;;;;;;;4962392;28;20675;-69
2024/03/12 09:07:33;;;;;;;27.70;13.47;;;;;;;;;;4971266;28;20279;-68
2024/03/12 09:09:59;;;;;;;28.80;12.80;;;;;;;;;;4971438;28;20208;-68
2024/03/12 09:12:26;;;;;;;26.00;13.40;;;;;;;;;;4956891;28;20172;-70
2024/03/12 09:14:52;;;;;;;20.93;11.13;;;;;;;;;;4956122;28;20184;-70
2024/03/12 09:17:18;;;;;;;21.83;11.60;;;;;;;;;;4973685;28;20203;-68
2024/03/12 09:19:43;;;;;;;20.17;9.90;;;;;;;;;;4956284;28;20173;-67
2024/03/12 09:22:09;;;;;;;23.37;12.33;;;;;;;;;;4957353;28;20272;-68
2024/03/12 09:24:34;;;;;;;19.63;9.93;;;;;;;;;;4965491;28;20184;-68
2024/03/12 09:26:59;;;;;;;19.13;10.80;;;;;;;;;;4973482;28;20239;-68
2024/03/12 09:29:24;;;;;;;18.57;10.40;;;;;;;;;;4962147;28;20235;-68
2024/03/12 09:31:49;;;;;;;17.87;10.63;;;;;;;;;;4944828;28;20239;-68
2024/03/12 09:34:16;;;;;;;21.07;11.63;;;;;;;;;;4978657;28;20207;-68
2024/03/12 09:36:41;;;;;;;19.30;10.83;;;;;;;;;;4960669;28;20771;-68
2024/03/12 09:39:10;;;;;;;19.90;10.60;;;;;;;;;;4965670;28;20271;-68
2024/03/12 09:41:38;;;;;;;23.43;11.60;;;;;;;;;;4968900;28;20607;-69
2024/03/12 09:44:04;;;;;;;20.67;11.00;;;;;;;;;;4970508;28;20622;-68
2024/03/12 09:46:30;;;;;;;19.67;11.33;;;;;;;;;;4945134;28;20252;-66
2024/03/12 09:48:55;;;;;;;21.37;12.37;;;;;;;;;;4970156;28;21626;-68
2024/03/12 09:51:24;;;;;;;21.37;12.07;;;;;;;;;;4971776;28;20663;-68
2024/03/12 09:53:49;;;;;;;19.20;11.40;;;;;;;;;;4972192;28;20184;-68
2024/03/12 09:56:16;;;;;;;22.17;12.70;;;;;;;;;;4964788;28;20184;-68
2024/03/12 09:58:43;;;;;;;22.10;12.83;;;;;;;;;;4964068;28;20259;-68
2024/03/12 10:01:09;;;;;;;24.33;12.63;;;;;;;;;;4955128;28;20185;-67
2024/03/12 10:03:35;;;;;;;19.80;11.40;;;;;;;;;;4951739;28;20188;-68
2024/03/12 10:06:02;;;;;;;21.87;12.20;;;;;;;;;;4958116;28;20614;-68
2024/03/12 10:08:31;;;;;;;25.47;13.37;;;;;;;;;;4955163;28;20684;-68
2024/03/12 10:10:57;;;;;;;20.07;11.70;;;;;;;;;;4970264;28;20184;-69
2024/03/12 10:13:23;;;;;;;24.93;12.77;;;;;;;;;;4970797;28;20558;-69
2024/03/12 10:15:50;;;;;;;23.20;12.45;;;;;;;;;;4954851;28;20191;-69
2024/03/12 10:18:16;;;;;;;24.10;12.70;;;;;;;;;;4964639;28;20286;-68
2024/03/12 10:20:54;;;;;;;21.65;13.32;;;;;;;;;;4970088;28;20188;-69
2024/03/12 10:23:21;;;;;;;24.58;14.15;;;;;;;;;;4948661;28;20186;-69
2024/03/12 10:25:46;;;;;;;21.77;12.67;;;;;;;;;;4961745;28;20243;-68
2024/03/12 10:28:16;;;;;;;29.23;13.98;;;;;;;;;;4962811;28;20196;-69
2024/03/12 10:30:42;;;;;;;24.17;12.17;;;;;;;;;;4962395;28;20572;-68
2024/03/12 10:33:16;;;;;;;22.23;13.25;;;;;;;;;;4970849;28;20201;-70
2024/03/12 10:35:44;;;;;;;26.05;13.50;;;;;;;;;;4970643;28;20183;-69
2024/03/12 10:38:11;;;;;;;25.80;13.25;;;;;;;;;;4972048;28;20230;-69
2024/03/12 10:40:36;;;;;;;26.00;13.70;;;;;;;;;;4962251;28;20193;-69
2024/03/12 10:43:01;;;;;;;22.20;12.40;;;;;;;;;;4960201;28;20631;-69
2024/03/12 10:45:28;;;;;;;23.58;12.30;;;;;;;;;;4981032;28;20192;-69
2024/03/12 10:47:54;;;;;;;24.42;14.25;;;;;;;;;;4964419;28;20215;-69
2024/03/12 10:50:23;;;;;;;26.50;14.10;;;;;;;;;;4963005;28;20204;-69
2024/03/12 10:52:50;;;;;;;26.58;13.60;;;;;;;;;;4969682;28;20264;-69
2024/03/12 10:55:21;;;;;;;22.83;13.57;;;;;;;;;;4955001;28;20733;-68
2024/03/12 10:57:55;;;;;;;24.08;14.43;;;;;;;;;;4965076;28;20215;-69
2024/03/12 11:00:20;;;;;;;23.48;12.85;;;;;;;;;;4967965;28;20238;-69
2024/03/12 11:02:53;;;;;;;22.17;12.40;;;;;;;;;;4968519;28;20648;-68
2024/03/12 11:05:20;;;;;;;22.92;12.27;;;;;;;;;;4968427;28;20253;-68
2024/03/12 11:07:45;;;;;;;23.60;14.18;;;;;;;;;;4959274;28;20210;-67
2024/03/12 11:10:12;;;;;;;22.10;13.00;;;;;;;;;;4964433;28;20200;-69
2024/03/12 11:12:37;;;;;;;26.20;14.07;;;;;;;;;;4954346;28;20180;-69
2024/03/12 11:15:02;;;;;;;22.42;12.55;;;;;;;;;;4965614;28;20192;-69
2024/03/12 11:17:31;;;;;;;23.40;12.40;;;;;;;;;;4971651;28;20188;-68
2024/03/12 11:19:56;;;;;;;23.98;13.75;;;;;;;;;;4962870;28;20644;-68
2024/03/12 11:22:22;;;;;;;23.30;13.57;;;;;;;;;;4969823;28;20188;-70
2024/03/12 11:24:48;;;;;;;23.85;13.98;;;;;;;;;;4979749;28;20226;-69
2024/03/12 11:27:25;;;;;;;26.38;14.32;;;;;;;;;;4955944;28;20203;-69
2024/03/12 11:30:14;;;;;;;22.45;13.18;;;;;;;;;;4975696;28;20262;-67
2024/03/12 11:32:43;;;;;;;27.95;14.52;;;;;;;;;;4957170;28;20267;-68
2024/03/12 11:35:17;;;;;;;27.15;14.35;;;;;;;;;;4967412;28;20277;-69
2024/03/12 11:37:45;;;;;;;23.05;13.80;;;;;;;;;;4966227;28;20594;-68
2024/03/12 11:40:30;;;;;;;25.40;14.07;;;;;;;;;;4975498;28;20763;-68
2024/03/12 11:42:56;;;;;;;26.98;15.00;;;;;;;;;;4951725;28;20283;-68
2024/03/12 11:45:41;;;;;;;26.73;14.70;;;;;;;;;;4967465;28;20323;-68
2024/03/12 11:48:10;;;;;;;25.80;14.60;;;;;;;;;;4961266;28;20247;-67
2024/03/12 11:50:36;;;;;;;29.85;15.70;;;;;;;;;;4973558;28;20212;-68
2024/03/12 11:53:14;;;;;;;27.95;15.38;;;;;;;;;;4960540;28;20189;-68
2024/03/12 11:55:52;;;;;;;26.20;13.82;;;;;;;;;;4975476;28;20545;-67
2024/03/12 11:58:17;;;;;;;25.63;14.63;;;;;;;;;;4971632;28;20238;-68
2024/03/12 12:00:42;;;;;;;23.63;14.43;;;;;;;;;;4971603;28;20207;-69
2024/03/12 12:03:08;;;;;;;26.88;15.05;;;;;;;;;;4969312;28;20169;-69
2024/03/12 12:05:33;;;;;;;30.02;15.50;;;;;;;;;;4970488;28;20652;-68
2024/03/12 12:08:05;;;;;;;25.27;15.50;;;;;;;;;;4967091;28;20252;-69
2024/03/12 12:10:30;;;;;;;21.15;12.43;;;;;;;;;;4972275;28;20204;-69
2024/03/12 12:12:56;;;;;;;21.65;13.10;;;;;;;;;;4970642;28;20184;-69
2024/03/12 12:15:21;;;;;;;24.70;14.63;;;;;;;;;;4968620;28;20236;-68
2024/03/12 12:17:46;;;;;;;23.05;13.60;;;;;;;;;;4972884;28;20207;-68
2024/03/12 12:20:14;;;;;;;25.63;14.20;;;;;;;;;;4974558;28;20173;-68
2024/03/12 12:22:44;;;;;;;29.88;15.40;;;;;;;;;;4968415;28;20181;-68
2024/03/12 12:25:11;;;;;;;25.95;15.15;;;;;;;;;;4955583;28;20208;-67
2024/03/12 12:27:38;;;;;;;26.00;16.05;;;;;;;;;;4969557;28;20207;-67
2024/03/12 12:30:05;;;;;;;30.20;15.88;;;;;;;;;;4948015;28;20200;-67
2024/03/12 12:32:31;;;;;;;28.30;16.23;;;;;;;;;;4970948;28;20183;-69
2024/03/12 12:34:57;;;;;;;32.88;16.70;;;;;;;;;;4964910;28;20177;-68
2024/03/12 12:37:22;;;;;;;27.50;16.25;;;;;;;;;;4973714;28;20223;-67
2024/03/12 12:39:48;;;;;;;28.15;16.35;;;;;;;;;;4968228;28;20176;-68
2024/03/12 12:42:14;;;;;;;31.15;16.45;;;;;;;;;;4965882;28;20632;-69
2024/03/12 12:44:40;;;;;;;28.42;16.42;;;;;;;;;;4967297;28;20260;-68
2024/03/12 12:47:05;;;;;;;31.02;17.80;;;;;;;;;;4966505;28;20291;-66
2024/03/12 12:49:32;;;;;;;27.45;16.05;;;;;;;;;;4967549;28;20290;-68
2024/03/12 12:51:58;;;;;;;28.60;17.35;;;;;;;;;;4965850;28;20648;-68
2024/03/12 12:54:23;;;;;;;30.83;17.60;;;;;;;;;;4945667;28;20648;-68
2024/03/12 12:56:49;;;;;;;28.52;17.70;;;;;;;;;;4974293;28;20198;-69
2024/03/12 12:59:16;;;;;;;29.80;18.67;;;;;;;;;;4981682;28;20181;-68
2024/03/12 13:01:42;;;;;;;29.13;17.80;;;;;;;;;;4960272;28;20665;-68
2024/03/12 13:04:23;;;;;;;36.40;19.45;;;;;;;;;;4965173;28;20271;-65
2024/03/12 13:06:49;;;;;;;35.08;20.42;;;;;;;;;;4972434;28;20746;-68
2024/03/12 13:09:31;;;;;;;31.98;20.35;;;;;;;;;;4966345;28;20212;-68
2024/03/12 13:11:57;;;;;;;31.92;20.05;;;;;;;;;;4971064;28;20176;-68
2024/03/12 13:14:23;;;;;;;34.80;21.10;;;;;;;;;;4965472;28;20184;-68
2024/03/12 13:16:48;;;;;;;36.28;21.30;;;;;;;;;;4967314;28;20569;-68
2024/03/12 13:19:13;;;;;;;37.50;21.48;;;;;;;;;;4958337;28;20189;-68
2024/03/12 13:21:39;;;;;;;33.58;21.73;;;;;;;;;;4971022;28;20180;-67
2024/03/12 13:24:05;;;;;;;44.50;23.08;;;;;;;;;;4972247;28;20593;-67
2024/03/12 13:26:33;;;;;;;39.80;23.80;;;;;;;;;;4965071;28;20205;-68
2024/03/12 13:28:58;;;;;;;37.17;23.42;;;;;;;;;;4969155;28;20250;-68
2024/03/12 13:31:24;;;;;;;37.35;22.27;;;;;;;;;;4957330;28;20203;-68
2024/03/12 13:33:50;;;;;;;41.90;23.08;;;;;;;;;;4974028;28;20211;-68
2024/03/12 13:36:19;;;;;;;41.22;21.42;;;;;;;;;;4955399;28;20181;-68
2024/03/12 13:38:44;;;;;;;43.55;23.13;;;;;;;;;;4954370;28;20185;-68
2024/03/12 13:41:10;;;;;;;41.65;22.52;;;;;;;;;;4953610;28;20187;-68
2024/03/12 13:43:36;;;;;;;40.95;22.80;;;;;;;;;;4963719;28;20192;-69
2024/03/12 13:46:05;;;;;;;40.60;22.02;;;;;;;;;;4970340;28;20188;-69
2024/03/12 13:48:30;;;;;;;35.65;20.90;;;;;;;;;;4967453;28;20177;-66
2024/03/12 13:50:57;;;;;;;38.63;21.55;;;;;;;;;;4965083;28;20181;-68
2024/03/12 13:53:23;;;;;;;39.20;21.27;;;;;;;;;;4962249;28;20184;-68
2024/03/12 13:55:48;;;;;;;36.15;22.58;;;;;;;;;;4963834;28;20267;-69
2024/03/12 13:58:13;;;;;;;36.60;21.23;;;;;;;;;;4971720;28;20378;-68
2024/03/12 14:00:40;;;;;;;42.55;22.98;;;;;;;;;;4972807;28;20184;-68
2024/03/12 14:03:05;;;;;;;41.30;21.42;;;;;;;;;;4964160;28;20207;-69
2024/03/12 14:05:31;;;;;;;38.38;21.63;;;;;;;;;;4971199;28;20581;-68
2024/03/12 14:07:56;;;;;;;34.55;21.77;;;;;;;;;;4975213;28;20204;-67
2024/03/12 14:10:21;;;;;;;38.17;21.60;;;;;;;;;;4971772;28;20282;-68
2024/03/12 14:12:47;;;;;;;39.53;20.88;;;;;;;;;;4981737;28;20211;-69
2024/03/12 14:15:12;;;;;;;40.95;22.63;;;;;;;;;;4973667;28;20432;-68
2024/03/12 14:17:37;;;;;;;35.42;21.10;;;;;;;;;;4971373;28;20628;-68
2024/03/12 14:20:10;;;;;;;37.00;20.75;;;;;;;;;;4980136;28;20887;-68
2024/03/12 14:22:36;;;;;;;34.45;20.52;;;;;;;;;;4961806;28;20271;-68